sensor_id;sensor_type;location;lat;lon;timestamp;pressure;altitude;pressure_sealevel;temperature;humidity
16595;BME280;8410;52.532;13.336;2022-11-20T00:00:26;100740.03;;;4.78;83.60
16595;BME280;8410;52.532;13.336;2022-11-20T00:02:53;100741.72;;;4.08;83.52
16595;BME280;8410;52.532;13.336;2022-11-20T00:05:20;100743.41;;;4.53;84.24
16595;BME280;8410;52.532;13.336;2022-11-20T00:07:48;100735.38;;;4.66;83.13
16595;BME280;8410;52.532;13.336;2022-11-20T00:10:15;100741.59;;;4.50;83.17
16595;BME280;8410;52.532;13.336;2022-11-20T00:12:44;100734.72;;;4.72;84.38
16595;BME280;8410;52.532;13.336;2022-11-20T00:15:12;100732.47;;;5.05;83.52
16595;BME280;8410;52.532;13.336;2022-11-20T00:17:39;100734.81;;;4.97;82.61
16595;BME280;8410;52.532;13.336;2022-11-20T00:20:07;100729.69;;;4.97;83.14
16595;BME280;8410;52.532;13.336;2022-11-20T00:22:35;100736.63;;;4.31;82.42
16595;BME280;8410;52.532;13.336;2022-11-20T00:25:03;100739.91;;;4.51;84.78
16595;BME280;8410;52.532;13.336;2022-11-20T00:27:31;100743.72;;;4.62;84.12
16595;BME280;8410;52.532;13.336;2022-11-20T00:30:00;100733.47;;;4.60;82.36
16595;BME280;8410;52.532;13.336;2022-11-20T00:32:27;100735.78;;;4.54;83.15
16595;BME280;8410;52.532;13.336;2022-11-20T00:34:55;100733.75;;;4.68;82.88
16595;BME280;8410;52.532;13.336;2022-11-20T00:37:22;100734.56;;;4.67;84.32
16595;BME280;8410;52.532;13.336;2022-11-20T00:39:49;100733.00;;;4.71;83.80
16595;BME280;8410;52.532;13.336;2022-11-20T00:42:17;100743.97;;;4.68;82.32
16595;BME280;8410;52.532;13.336;2022-11-20T00:44:44;100731.59;;;4.79;83.39
16595;BME280;8410;52.532;13.336;2022-11-20T00:47:13;100738.91;;;4.70;82.83
16595;BME280;8410;52.532;13.336;2022-11-20T00:49:41;100743.06;;;4.92;82.01
16595;BME280;8410;52.532;13.336;2022-11-20T00:52:08;100737.19;;;4.46;83.36
16595;BME280;8410;52.532;13.336;2022-11-20T00:54:36;100737.91;;;4.42;83.13
16595;BME280;8410;52.532;13.336;2022-11-20T00:57:03;100729.63;;;4.72;83.00
16595;BME280;8410;52.532;13.336;2022-11-20T00:59:30;100736.97;;;4.62;81.70
16595;BME280;8410;52.532;13.336;2022-11-20T01:01:58;100733.63;;;4.89;82.27
16595;BME280;8410;52.532;13.336;2022-11-20T01:04:27;100729.84;;;4.78;81.35
16595;BME280;8410;52.532;13.336;2022-11-20T01:06:54;100736.28;;;4.44;82.85
16595;BME280;8410;52.532;13.336;2022-11-20T01:09:21;100734.88;;;4.52;83.40
16595;BME280;8410;52.532;13.336;2022-11-20T01:11:49;100740.22;;;4.36;82.77
16595;BME280;8410;52.532;13.336;2022-11-20T01:14:18;100737.34;;;4.73;81.85
16595;BME280;8410;52.532;13.336;2022-11-20T01:16:48;100739.13;;;4.29;82.86
16595;BME280;8410;52.532;13.336;2022-11-20T01:19:17;100738.69;;;4.41;82.29
16595;BME280;8410;52.532;13.336;2022-11-20T01:21:49;100733.59;;;4.41;83.30
16595;BME280;8410;52.532;13.336;2022-11-20T01:24:17;100730.69;;;4.54;82.58
16595;BME280;8410;52.532;13.336;2022-11-20T01:26:47;100730.66;;;4.30;81.90
16595;BME280;8410;52.532;13.336;2022-11-20T01:29:17;100725.13;;;4.64;83.00
16595;BME280;8410;52.532;13.336;2022-11-20T01:31:45;100724.47;;;4.24;81.67
16595;BME280;8410;52.532;13.336;2022-11-20T01:34:15;100728.41;;;4.62;82.26
16595;BME280;8410;52.532;13.336;2022-11-20T01:36:44;100716.94;;;4.73;82.03
16595;BME280;8410;52.532;13.336;2022-11-20T01:39:15;100716.06;;;4.73;81.37
16595;BME280;8410;52.532;13.336;2022-11-20T01:41:44;100718.69;;;4.28;80.28
16595;BME280;8410;52.532;13.336;2022-11-20T01:44:50;100721.78;;;3.98;84.38
16595;BME280;8410;52.532;13.336;2022-11-20T01:47:23;100720.34;;;4.27;83.88
16595;BME280;8410;52.532;13.336;2022-11-20T01:49:55;100716.34;;;4.34;81.31
16595;BME280;8410;52.532;13.336;2022-11-20T01:52:29;100724.75;;;4.09;84.06
16595;BME280;8410;52.532;13.336;2022-11-20T01:55:02;100718.56;;;4.02;83.87
16595;BME280;8410;52.532;13.336;2022-11-20T01:57:33;100717.38;;;4.16;83.49
16595;BME280;8410;52.532;13.336;2022-11-20T02:00:04;100714.50;;;4.52;82.55
16595;BME280;8410;52.532;13.336;2022-11-20T02:02:33;100712.72;;;4.51;81.14
16595;BME280;8410;52.532;13.336;2022-11-20T02:05:07;100716.00;;;3.38;83.19
16595;BME280;8410;52.532;13.336;2022-11-20T02:07:37;100718.38;;;3.54;85.63
16595;BME280;8410;52.532;13.336;2022-11-20T02:10:07;100713.34;;;3.99;85.23
16595;BME280;8410;52.532;13.336;2022-11-20T02:12:35;100706.63;;;4.24;82.50
16595;BME280;8410;52.532;13.336;2022-11-20T02:15:20;100711.38;;;3.92;84.80
16595;BME280;8410;52.532;13.336;2022-11-20T02:17:54;100704.66;;;3.94;83.08
16595;BME280;8410;52.532;13.336;2022-11-20T02:20:21;100701.59;;;3.80;84.49
16595;BME280;8410;52.532;13.336;2022-11-20T02:22:54;100694.91;;;3.61;81.80
16595;BME280;8410;52.532;13.336;2022-11-20T02:25:26;100696.59;;;4.06;83.99
16595;BME280;8410;52.532;13.336;2022-11-20T02:27:55;100694.47;;;4.39;83.21
16595;BME280;8410;52.532;13.336;2022-11-20T02:30:23;100700.78;;;3.60;83.39
16595;BME280;8410;52.532;13.336;2022-11-20T02:32:51;100695.38;;;4.41;83.34
16595;BME280;8410;52.532;13.336;2022-11-20T02:35:41;100693.88;;;4.24;82.21
16595;BME280;8410;52.532;13.336;2022-11-20T02:38:09;100695.97;;;4.34;81.95
16595;BME280;8410;52.532;13.336;2022-11-20T02:40:39;100690.31;;;3.96;83.66
16595;BME280;8410;52.532;13.336;2022-11-20T02:43:07;100695.75;;;3.83;82.95
16595;BME280;8410;52.532;13.336;2022-11-20T02:45:35;100701.19;;;3.92;83.03
16595;BME280;8410;52.532;13.336;2022-11-20T02:48:02;100692.72;;;4.38;82.70
16595;BME280;8410;52.532;13.336;2022-11-20T02:50:30;100685.84;;;4.13;83.53
16595;BME280;8410;52.532;13.336;2022-11-20T02:52:57;100692.25;;;3.81;81.69
16595;BME280;8410;52.532;13.336;2022-11-20T02:55:25;100698.97;;;4.24;83.11
16595;BME280;8410;52.532;13.336;2022-11-20T02:57:53;100695.75;;;4.05;82.57
16595;BME280;8410;52.532;13.336;2022-11-20T03:00:21;100692.66;;;4.36;81.78
16595;BME280;8410;52.532;13.336;2022-11-20T03:02:48;100695.44;;;4.42;80.64
16595;BME280;8410;52.532;13.336;2022-11-20T03:05:16;100698.22;;;4.26;81.09
16595;BME280;8410;52.532;13.336;2022-11-20T03:07:44;100694.56;;;4.42;81.07
16595;BME280;8410;52.532;13.336;2022-11-20T03:10:11;100684.03;;;4.33;81.59
16595;BME280;8410;52.532;13.336;2022-11-20T03:12:39;100691.91;;;4.16;82.94
16595;BME280;8410;52.532;13.336;2022-11-20T03:15:09;100690.16;;;3.70;84.06
16595;BME280;8410;52.532;13.336;2022-11-20T03:17:36;100686.34;;;4.49;82.59
16595;BME280;8410;52.532;13.336;2022-11-20T03:20:05;100682.38;;;4.57;82.33
16595;BME280;8410;52.532;13.336;2022-11-20T03:22:32;100679.75;;;4.80;80.97
16595;BME280;8410;52.532;13.336;2022-11-20T03:25:00;100679.94;;;4.84;80.72
16595;BME280;8410;52.532;13.336;2022-11-20T03:27:31;100672.41;;;4.63;80.82
16595;BME280;8410;52.532;13.336;2022-11-20T03:29:59;100676.25;;;4.52;80.02
16595;BME280;8410;52.532;13.336;2022-11-20T03:32:28;100672.69;;;4.73;79.91
16595;BME280;8410;52.532;13.336;2022-11-20T03:34:55;100677.88;;;4.50;78.95
16595;BME280;8410;52.532;13.336;2022-11-20T03:37:22;100671.34;;;4.58;79.93
16595;BME280;8410;52.532;13.336;2022-11-20T03:39:50;100676.56;;;3.92;81.11
16595;BME280;8410;52.532;13.336;2022-11-20T03:42:17;100673.63;;;4.04;81.74
16595;BME280;8410;52.532;13.336;2022-11-20T03:45:03;100670.28;;;4.28;81.48
16595;BME280;8410;52.532;13.336;2022-11-20T03:47:32;100663.88;;;4.39;80.70
16595;BME280;8410;52.532;13.336;2022-11-20T03:49:59;100663.31;;;4.24;79.64
16595;BME280;8410;52.532;13.336;2022-11-20T03:52:26;100664.50;;;4.09;79.68
16595;BME280;8410;52.532;13.336;2022-11-20T03:54:54;100671.19;;;4.07;80.53
16595;BME280;8410;52.532;13.336;2022-11-20T03:57:21;100669.22;;;4.00;82.03
16595;BME280;8410;52.532;13.336;2022-11-20T03:59:49;100670.97;;;4.01;82.29
16595;BME280;8410;52.532;13.336;2022-11-20T04:02:16;100672.75;;;3.38;83.47
16595;BME280;8410;52.532;13.336;2022-11-20T04:04:45;100665.97;;;3.17;82.49
16595;BME280;8410;52.532;13.336;2022-11-20T04:07:12;100672.44;;;3.51;82.13
16595;BME280;8410;52.532;13.336;2022-11-20T04:09:40;100666.78;;;4.03;82.69
16595;BME280;8410;52.532;13.336;2022-11-20T04:12:07;100667.38;;;4.18;80.81
16595;BME280;8410;52.532;13.336;2022-11-20T04:14:35;100663.78;;;3.47;82.08
16595;BME280;8410;52.532;13.336;2022-11-20T04:17:03;100654.75;;;3.99;82.61
16595;BME280;8410;52.532;13.336;2022-11-20T04:19:31;100663.25;;;4.46;80.97
16595;BME280;8410;52.532;13.336;2022-11-20T04:21:59;100661.75;;;4.05;79.55
16595;BME280;8410;52.532;13.336;2022-11-20T04:24:27;100672.47;;;3.96;80.89
16595;BME280;8410;52.532;13.336;2022-11-20T04:26:54;100667.44;;;4.20;81.43
16595;BME280;8410;52.532;13.336;2022-11-20T04:29:21;100670.28;;;4.28;81.15
16595;BME280;8410;52.532;13.336;2022-11-20T04:31:49;100666.78;;;4.03;80.58
16595;BME280;8410;52.532;13.336;2022-11-20T04:34:17;100669.28;;;4.02;81.29
16595;BME280;8410;52.532;13.336;2022-11-20T04:36:44;100669.03;;;3.50;82.72
16595;BME280;8410;52.532;13.336;2022-11-20T04:39:13;100667.63;;;4.02;81.59
16595;BME280;8410;52.532;13.336;2022-11-20T04:41:41;100663.69;;;3.88;80.82
16595;BME280;8410;52.532;13.336;2022-11-20T04:44:09;100659.09;;;4.02;81.77
16595;BME280;8410;52.532;13.336;2022-11-20T04:46:38;100662.38;;;3.54;82.70
16595;BME280;8410;52.532;13.336;2022-11-20T04:49:07;100660.25;;;3.44;84.77
16595;BME280;8410;52.532;13.336;2022-11-20T04:51:34;100652.25;;;3.56;83.99
16595;BME280;8410;52.532;13.336;2022-11-20T04:54:02;100660.50;;;3.50;83.68
16595;BME280;8410;52.532;13.336;2022-11-20T04:56:31;100660.88;;;3.59;82.14
16595;BME280;8410;52.532;13.336;2022-11-20T04:59:00;100660.03;;;3.38;82.83
16595;BME280;8410;52.532;13.336;2022-11-20T05:01:28;100649.59;;;3.75;83.33
16595;BME280;8410;52.532;13.336;2022-11-20T05:03:55;100651.09;;;3.92;83.27
16595;BME280;8410;52.532;13.336;2022-11-20T05:06:23;100638.47;;;4.18;81.92
16595;BME280;8410;52.532;13.336;2022-11-20T05:08:50;100649.63;;;3.31;83.92
16595;BME280;8410;52.532;13.336;2022-11-20T05:11:19;100637.25;;;3.41;84.25
16595;BME280;8410;52.532;13.336;2022-11-20T05:13:50;100633.94;;;4.09;83.68
16595;BME280;8410;52.532;13.336;2022-11-20T05:16:20;100632.97;;;3.19;84.73
16595;BME280;8410;52.532;13.336;2022-11-20T05:18:48;100622.47;;;3.75;84.16
16595;BME280;8410;52.532;13.336;2022-11-20T05:21:17;100619.34;;;3.83;82.71
16595;BME280;8410;52.532;13.336;2022-11-20T05:23:45;100628.59;;;4.03;82.39
16595;BME280;8410;52.532;13.336;2022-11-20T05:26:14;100631.03;;;4.00;81.54
16595;BME280;8410;52.532;13.336;2022-11-20T05:28:42;100627.00;;;3.83;81.93
16595;BME280;8410;52.532;13.336;2022-11-20T05:31:12;100622.16;;;4.13;81.33
16595;BME280;8410;52.532;13.336;2022-11-20T05:33:41;100619.34;;;4.29;81.55
16595;BME280;8410;52.532;13.336;2022-11-20T05:36:09;100625.78;;;4.19;80.82
16595;BME280;8410;52.532;13.336;2022-11-20T05:38:37;100620.22;;;4.30;81.07
16595;BME280;8410;52.532;13.336;2022-11-20T05:41:05;100614.69;;;4.17;82.03
16595;BME280;8410;52.532;13.336;2022-11-20T05:43:33;100618.97;;;4.18;80.99
16595;BME280;8410;52.532;13.336;2022-11-20T05:46:01;100623.78;;;4.35;80.30
16595;BME280;8410;52.532;13.336;2022-11-20T05:48:32;100620.44;;;4.36;80.79
16595;BME280;8410;52.532;13.336;2022-11-20T05:51:01;100606.81;;;4.11;80.42
16595;BME280;8410;52.532;13.336;2022-11-20T05:53:29;100604.34;;;4.37;80.08
16595;BME280;8410;52.532;13.336;2022-11-20T05:55:58;100610.38;;;4.16;81.41
16595;BME280;8410;52.532;13.336;2022-11-20T05:58:26;100609.34;;;4.11;80.99
16595;BME280;8410;52.532;13.336;2022-11-20T06:00:54;100607.34;;;4.27;81.72
16595;BME280;8410;52.532;13.336;2022-11-20T06:03:21;100608.22;;;4.27;82.05
16595;BME280;8410;52.532;13.336;2022-11-20T06:05:50;100609.69;;;4.20;81.81
16595;BME280;8410;52.532;13.336;2022-11-20T06:08:17;100608.88;;;4.22;80.79
16595;BME280;8410;52.532;13.336;2022-11-20T06:10:45;100603.13;;;3.58;81.76
16595;BME280;8410;52.532;13.336;2022-11-20T06:13:12;100608.91;;;2.90;86.46
16595;BME280;8410;52.532;13.336;2022-11-20T06:15:40;100606.16;;;3.93;84.28
16595;BME280;8410;52.532;13.336;2022-11-20T06:18:07;100607.38;;;3.37;83.23
16595;BME280;8410;52.532;13.336;2022-11-20T06:20:34;100606.16;;;3.48;86.02
16595;BME280;8410;52.532;13.336;2022-11-20T06:23:08;100609.88;;;3.14;85.51
16595;BME280;8410;52.532;13.336;2022-11-20T06:25:37;100602.47;;;4.09;83.53
16595;BME280;8410;52.532;13.336;2022-11-20T06:28:04;100612.63;;;3.40;82.94
16595;BME280;8410;52.532;13.336;2022-11-20T06:30:32;100604.75;;;3.79;83.63
16595;BME280;8410;52.532;13.336;2022-11-20T06:33:00;100608.84;;;3.52;84.47
16595;BME280;8410;52.532;13.336;2022-11-20T06:35:27;100609.97;;;4.28;82.79
16595;BME280;8410;52.532;13.336;2022-11-20T06:37:55;100603.69;;;4.18;82.14
16595;BME280;8410;52.532;13.336;2022-11-20T06:40:24;100600.16;;;4.63;82.31
16595;BME280;8410;52.532;13.336;2022-11-20T06:42:53;100610.84;;;4.29;82.10
16595;BME280;8410;52.532;13.336;2022-11-20T06:45:20;100597.31;;;4.07;83.49
16595;BME280;8410;52.532;13.336;2022-11-20T06:47:48;100603.81;;;3.31;84.04
16595;BME280;8410;52.532;13.336;2022-11-20T06:50:15;100594.88;;;4.10;83.79
16595;BME280;8410;52.532;13.336;2022-11-20T06:52:43;100596.19;;;4.47;82.65
16595;BME280;8410;52.532;13.336;2022-11-20T06:55:10;100599.59;;;4.48;82.24
16595;BME280;8410;52.532;13.336;2022-11-20T06:57:39;100598.28;;;4.59;82.16
16595;BME280;8410;52.532;13.336;2022-11-20T07:00:07;100599.78;;;3.59;83.61
16595;BME280;8410;52.532;13.336;2022-11-20T07:02:35;100596.84;;;4.17;83.02
16595;BME280;8410;52.532;13.336;2022-11-20T07:05:03;100593.94;;;4.31;82.97
16595;BME280;8410;52.532;13.336;2022-11-20T07:07:30;100590.25;;;4.23;81.47
16595;BME280;8410;52.532;13.336;2022-11-20T07:09:58;100592.56;;;3.70;83.95
16595;BME280;8410;52.532;13.336;2022-11-20T07:12:25;100592.41;;;4.36;82.10
16595;BME280;8410;52.532;13.336;2022-11-20T07:14:55;100587.50;;;3.94;82.94
16595;BME280;8410;52.532;13.336;2022-11-20T07:17:22;100603.38;;;3.64;82.63
16595;BME280;8410;52.532;13.336;2022-11-20T07:19:50;100600.97;;;3.24;84.41
16595;BME280;8410;52.532;13.336;2022-11-20T07:22:17;100593.69;;;4.25;83.24
16595;BME280;8410;52.532;13.336;2022-11-20T07:24:47;100596.19;;;4.47;82.84
16595;BME280;8410;52.532;13.336;2022-11-20T07:27:15;100591.84;;;4.69;80.88
16595;BME280;8410;52.532;13.336;2022-11-20T07:29:42;100598.50;;;4.65;81.38
16595;BME280;8410;52.532;13.336;2022-11-20T07:32:11;100598.41;;;4.38;81.61
16595;BME280;8410;52.532;13.336;2022-11-20T07:34:38;100600.63;;;4.05;80.66
16595;BME280;8410;52.532;13.336;2022-11-20T07:37:06;100594.25;;;3.69;83.65
16595;BME280;8410;52.532;13.336;2022-11-20T07:39:35;100591.50;;;4.11;83.07
16595;BME280;8410;52.532;13.336;2022-11-20T07:42:03;100592.13;;;4.04;81.46
16595;BME280;8410;52.532;13.336;2022-11-20T07:44:30;100591.16;;;3.78;81.90
16595;BME280;8410;52.532;13.336;2022-11-20T07:46:58;100587.53;;;4.42;82.65
16595;BME280;8410;52.532;13.336;2022-11-20T07:49:27;100581.31;;;4.59;82.22
16595;BME280;8410;52.532;13.336;2022-11-20T07:51:54;100582.94;;;4.83;81.32
16595;BME280;8410;52.532;13.336;2022-11-20T07:54:28;100579.38;;;4.52;80.06
16595;BME280;8410;52.532;13.336;2022-11-20T07:56:55;100582.84;;;4.80;80.30
16595;BME280;8410;52.532;13.336;2022-11-20T07:59:23;100589.13;;;4.64;79.24
16595;BME280;8410;52.532;13.336;2022-11-20T08:01:50;100591.16;;;4.25;81.04
16595;BME280;8410;52.532;13.336;2022-11-20T08:04:18;100591.66;;;4.64;80.41
16595;BME280;8410;52.532;13.336;2022-11-20T08:06:47;100588.56;;;4.73;79.82
16595;BME280;8410;52.532;13.336;2022-11-20T08:09:14;100579.88;;;4.68;80.91
16595;BME280;8410;52.532;13.336;2022-11-20T08:11:41;100573.56;;;4.82;79.25
16595;BME280;8410;52.532;13.336;2022-11-20T08:14:27;100580.59;;;4.89;79.30
16595;BME280;8410;52.532;13.336;2022-11-20T08:16:54;100572.63;;;4.54;79.95
16595;BME280;8410;52.532;13.336;2022-11-20T08:19:21;100573.25;;;4.73;78.76
16595;BME280;8410;52.532;13.336;2022-11-20T08:21:51;100584.56;;;4.81;77.60
16595;BME280;8410;52.532;13.336;2022-11-20T08:24:18;100579.34;;;4.76;78.22
16595;BME280;8410;52.532;13.336;2022-11-20T08:26:45;100573.81;;;4.90;78.38
16595;BME280;8410;52.532;13.336;2022-11-20T08:29:13;100577.84;;;4.57;78.75
16595;BME280;8410;52.532;13.336;2022-11-20T08:31:40;100580.25;;;4.05;80.87
16595;BME280;8410;52.532;13.336;2022-11-20T08:34:08;100569.56;;;4.64;79.99
16595;BME280;8410;52.532;13.336;2022-11-20T08:36:40;100568.81;;;4.67;78.69
16595;BME280;8410;52.532;13.336;2022-11-20T08:39:11;100566.56;;;5.02;78.51
16595;BME280;8410;52.532;13.336;2022-11-20T08:41:39;100562.66;;;4.60;77.61
16595;BME280;8410;52.532;13.336;2022-11-20T08:44:07;100560.41;;;4.95;78.01
16595;BME280;8410;52.532;13.336;2022-11-20T08:46:36;100562.03;;;4.93;78.00
16595;BME280;8410;52.532;13.336;2022-11-20T08:49:04;100565.91;;;3.84;79.54
16595;BME280;8410;52.532;13.336;2022-11-20T08:51:32;100565.78;;;4.28;78.61
16595;BME280;8410;52.532;13.336;2022-11-20T08:54:00;100565.59;;;4.73;78.69
16595;BME280;8410;52.532;13.336;2022-11-20T08:56:29;100582.78;;;4.78;77.27
16595;BME280;8410;52.532;13.336;2022-11-20T08:58:57;100583.00;;;4.59;76.57
16595;BME280;8410;52.532;13.336;2022-11-20T09:01:45;100551.78;;;8.73;100.00
16595;BME280;8410;52.532;13.336;2022-11-20T09:04:12;100536.16;;;11.75;88.08
16595;BME280;8410;52.532;13.336;2022-11-20T09:06:40;100532.56;;;11.42;80.15
16595;BME280;8410;52.532;13.336;2022-11-20T09:09:08;100549.91;;;9.78;67.40
16595;BME280;8410;52.532;13.336;2022-11-20T09:11:37;100559.00;;;7.60;68.68
16595;BME280;8410;52.532;13.336;2022-11-20T09:14:04;100558.19;;;6.54;71.75
16595;BME280;8410;52.532;13.336;2022-11-20T09:16:31;100566.28;;;5.77;74.52
16595;BME280;8410;52.532;13.336;2022-11-20T09:18:59;100568.78;;;5.45;74.60
16595;BME280;8410;52.532;13.336;2022-11-20T09:21:46;100580.16;;;5.02;77.01
16595;BME280;8410;52.532;13.336;2022-11-20T09:24:14;100582.81;;;5.60;75.08
16595;BME280;8410;52.532;13.336;2022-11-20T09:26:43;100582.63;;;5.53;74.80
16595;BME280;8410;52.532;13.336;2022-11-20T09:29:10;100573.69;;;5.39;75.16
16595;BME280;8410;52.532;13.336;2022-11-20T09:31:38;100582.50;;;5.22;75.37
16595;BME280;8410;52.532;13.336;2022-11-20T09:34:05;100581.97;;;5.32;76.26
16595;BME280;8410;52.532;13.336;2022-11-20T09:36:33;100573.69;;;5.39;76.00
16595;BME280;8410;52.532;13.336;2022-11-20T09:39:00;100570.59;;;5.49;75.69
16595;BME280;8410;52.532;13.336;2022-11-20T09:42:01;100571.13;;;5.68;75.23
16595;BME280;8410;52.532;13.336;2022-11-20T09:44:40;100569.31;;;5.64;75.42
16595;BME280;8410;52.532;13.336;2022-11-20T09:47:16;100569.31;;;5.35;75.31
16595;BME280;8410;52.532;13.336;2022-11-20T09:50:00;100571.09;;;5.11;77.21
16595;BME280;8410;52.532;13.336;2022-11-20T09:52:34;100561.38;;;5.55;75.81
16595;BME280;8410;52.532;13.336;2022-11-20T09:55:06;100563.09;;;5.00;77.00
16595;BME280;8410;52.532;13.336;2022-11-20T09:57:38;100562.00;;;5.47;76.73
16595;BME280;8410;52.532;13.336;2022-11-20T10:00:11;100554.19;;;5.70;75.37
16595;BME280;8410;52.532;13.336;2022-11-20T10:02:42;100549.78;;;5.66;76.15
16595;BME280;8410;52.532;13.336;2022-11-20T10:05:17;100546.91;;;5.84;75.62
16595;BME280;8410;52.532;13.336;2022-11-20T10:07:49;100551.31;;;5.89;75.12
16595;BME280;8410;52.532;13.336;2022-11-20T10:10:29;100549.47;;;5.84;74.20
16595;BME280;8410;52.532;13.336;2022-11-20T10:13:11;100543.69;;;5.61;74.57
16595;BME280;8410;52.532;13.336;2022-11-20T10:15:47;100548.31;;;5.17;78.00
16595;BME280;8410;52.532;13.336;2022-11-20T10:18:30;100547.03;;;5.88;75.56
16595;BME280;8410;52.532;13.336;2022-11-20T10:21:07;100545.94;;;5.23;76.77
16595;BME280;8410;52.532;13.336;2022-11-20T10:24:19;100534.91;;;5.81;75.28
16595;BME280;8410;52.532;13.336;2022-11-20T10:27:00;100539.38;;;5.88;74.52
16595;BME280;8410;52.532;13.336;2022-11-20T10:29:34;100525.81;;;5.61;75.85
16595;BME280;8410;52.532;13.336;2022-11-20T10:32:04;100524.94;;;5.90;75.72
16595;BME280;8410;52.532;13.336;2022-11-20T10:34:42;100522.84;;;6.06;75.23
16595;BME280;8410;52.532;13.336;2022-11-20T10:37:17;100514.59;;;6.16;74.80
16595;BME280;8410;52.532;13.336;2022-11-20T10:39:50;100515.81;;;5.99;74.39
16595;BME280;8410;52.532;13.336;2022-11-20T10:42:26;100512.41;;;5.68;75.45
16595;BME280;8410;52.532;13.336;2022-11-20T10:45:02;100522.38;;;5.90;74.49
16595;BME280;8410;52.532;13.336;2022-11-20T10:47:38;100515.03;;;6.00;74.99
16595;BME280;8410;52.532;13.336;2022-11-20T10:50:19;100510.28;;;5.83;74.03
16595;BME280;8410;52.532;13.336;2022-11-20T10:52:52;100507.44;;;6.03;74.92
16595;BME280;8410;52.532;13.336;2022-11-20T10:55:30;100516.19;;;5.81;74.40
16595;BME280;8410;52.532;13.336;2022-11-20T10:58:07;100504.59;;;6.24;75.11
16595;BME280;8410;52.532;13.336;2022-11-20T11:00:38;100511.69;;;6.35;74.79
16595;BME280;8410;52.532;13.336;2022-11-20T11:03:19;100508.56;;;6.46;73.18
16595;BME280;8410;52.532;13.336;2022-11-20T11:05:50;100507.56;;;6.39;74.12
16595;BME280;8410;52.532;13.336;2022-11-20T11:08:21;100514.31;;;6.38;73.86
16595;BME280;8410;52.532;13.336;2022-11-20T11:10:52;100507.38;;;6.33;72.45
16595;BME280;8410;52.532;13.336;2022-11-20T11:13:21;100507.00;;;6.17;74.29
16595;BME280;8410;52.532;13.336;2022-11-20T11:15:51;100508.13;;;5.67;74.82
16595;BME280;8410;52.532;13.336;2022-11-20T11:18:25;100505.41;;;5.92;75.05
16595;BME280;8410;52.532;13.336;2022-11-20T11:20:54;100507.78;;;6.15;73.64
16595;BME280;8410;52.532;13.336;2022-11-20T11:23:30;100503.88;;;6.29;73.67
16595;BME280;8410;52.532;13.336;2022-11-20T11:25:59;100508.84;;;5.63;74.49
16595;BME280;8410;52.532;13.336;2022-11-20T11:28:27;100502.56;;;6.12;73.78
16595;BME280;8410;52.532;13.336;2022-11-20T11:30:56;100503.78;;;5.64;77.32
16595;BME280;8410;52.532;13.336;2022-11-20T11:33:25;100500.06;;;6.13;74.53
16595;BME280;8410;52.532;13.336;2022-11-20T11:35:55;100487.97;;;6.08;74.69
16595;BME280;8410;52.532;13.336;2022-11-20T11:38:29;100502.41;;;5.45;74.97
16595;BME280;8410;52.532;13.336;2022-11-20T11:40:58;100499.25;;;4.44;77.13
16595;BME280;8410;52.532;13.336;2022-11-20T11:43:28;100500.41;;;4.81;77.78
16595;BME280;8410;52.532;13.336;2022-11-20T11:46:32;100501.22;;;5.05;77.86
16595;BME280;8410;52.532;13.336;2022-11-20T11:49:08;100502.84;;;5.03;77.85
16595;BME280;8410;52.532;13.336;2022-11-20T11:51:49;100490.97;;;5.34;76.95
16595;BME280;8410;52.532;13.336;2022-11-20T11:54:20;100495.06;;;5.58;76.92
16595;BME280;8410;52.532;13.336;2022-11-20T11:56:50;100490.66;;;5.23;76.95
16595;BME280;8410;52.532;13.336;2022-11-20T11:59:25;100492.00;;;5.39;76.12
16595;BME280;8410;52.532;13.336;2022-11-20T12:01:59;100498.69;;;5.07;79.73
16595;BME280;8410;52.532;13.336;2022-11-20T12:06:59;100482.13;;;5.21;79.85
16595;BME280;8410;52.532;13.336;2022-11-20T12:09:50;100494.63;;;4.59;79.66
16595;BME280;8410;52.532;13.336;2022-11-20T12:12:21;100483.19;;;4.74;80.56
16595;BME280;8410;52.532;13.336;2022-11-20T12:14:53;100473.19;;;5.37;78.54
16595;BME280;8410;52.532;13.336;2022-11-20T12:17:23;100473.78;;;5.27;78.35
16595;BME280;8410;52.532;13.336;2022-11-20T12:19:51;100479.25;;;5.11;77.69
16595;BME280;8410;52.532;13.336;2022-11-20T12:22:28;100467.38;;;5.41;77.32
16595;BME280;8410;52.532;13.336;2022-11-20T12:25:01;100465.78;;;5.75;77.74
16595;BME280;8410;52.532;13.336;2022-11-20T12:27:44;100459.88;;;5.46;77.57
16595;BME280;8410;52.532;13.336;2022-11-20T12:30:17;100465.88;;;5.78;76.62
16595;BME280;8410;52.532;13.336;2022-11-20T12:33:12;100458.59;;;5.62;76.13
16595;BME280;8410;52.532;13.336;2022-11-20T12:35:56;100459.41;;;5.61;77.22
16595;BME280;8410;52.532;13.336;2022-11-20T12:38:39;100453.22;;;5.52;75.28
16595;BME280;8410;52.532;13.336;2022-11-20T12:41:16;100451.47;;;5.80;75.79
16595;BME280;8410;52.532;13.336;2022-11-20T12:44:11;100450.78;;;5.87;76.58
16595;BME280;8410;52.532;13.336;2022-11-20T12:47:13;100450.72;;;5.24;75.24
16595;BME280;8410;52.532;13.336;2022-11-20T12:49:49;100456.09;;;5.93;75.75
16595;BME280;8410;52.532;13.336;2022-11-20T12:52:27;100451.94;;;5.97;76.26
16595;BME280;8410;52.532;13.336;2022-11-20T12:55:10;100442.31;;;5.88;73.66
16595;BME280;8410;52.532;13.336;2022-11-20T12:57:45;100440.34;;;6.11;75.05
16595;BME280;8410;52.532;13.336;2022-11-20T13:00:18;100446.63;;;5.59;74.41
16595;BME280;8410;52.532;13.336;2022-11-20T13:03:01;100442.94;;;5.49;78.00
16595;BME280;8410;52.532;13.336;2022-11-20T13:05:43;100447.69;;;5.97;75.35
16595;BME280;8410;52.532;13.336;2022-11-20T13:08:19;100434.31;;;6.08;75.93
16595;BME280;8410;52.532;13.336;2022-11-20T13:10:54;100430.66;;;6.33;73.68
16595;BME280;8410;52.532;13.336;2022-11-20T13:13:29;100432.59;;;5.77;75.24
16595;BME280;8410;52.532;13.336;2022-11-20T13:16:01;100437.19;;;5.88;75.86
16595;BME280;8410;52.532;13.336;2022-11-20T13:18:36;100443.44;;;5.68;75.65
16595;BME280;8410;52.532;13.336;2022-11-20T13:21:15;100440.91;;;5.09;78.54